sensor_id;sensor_type;location;lat;lon;timestamp;temperature;humidity
3868;DHT22;1949;48.152;11.528;2024-01-30T00:01:51;11.60;35.70
3868;DHT22;1949;48.152;11.528;2024-01-30T00:04:17;11.60;35.80
3868;DHT22;1949;48.152;11.528;2024-01-30T00:06:43;11.60;35.70
3868;DHT22;1949;48.152;11.528;2024-01-30T00:09:09;11.60;35.80
3868;DHT22;1949;48.152;11.528;2024-01-30T00:11:36;11.50;35.70
3868;DHT22;1949;48.152;11.528;2024-01-30T00:14:03;11.50;35.70
3868;DHT22;1949;48.152;11.528;2024-01-30T00:16:31;11.50;35.80
3868;DHT22;1949;48.152;11.528;2024-01-30T00:18:58;11.50;35.80
3868;DHT22;1949;48.152;11.528;2024-01-30T00:21:25;11.50;35.80
3868;DHT22;1949;48.152;11.528;2024-01-30T00:23:50;11.50;35.80
3868;DHT22;1949;48.152;11.528;2024-01-30T00:26:16;11.50;35.80
3868;DHT22;1949;48.152;11.528;2024-01-30T00:28:42;11.40;35.80
3868;DHT22;1949;48.152;11.528;2024-01-30T00:31:08;11.40;35.80
3868;DHT22;1949;48.152;11.528;2024-01-30T00:33:38;11.40;35.90
3868;DHT22;1949;48.152;11.528;2024-01-30T00:36:05;11.40;35.90
3868;DHT22;1949;48.152;11.528;2024-01-30T00:38:32;11.40;35.90
3868;DHT22;1949;48.152;11.528;2024-01-30T00:40:58;11.40;35.90
3868;DHT22;1949;48.152;11.528;2024-01-30T00:43:23;11.40;35.90
3868;DHT22;1949;48.152;11.528;2024-01-30T00:45:51;11.30;35.80
3868;DHT22;1949;48.152;11.528;2024-01-30T00:48:18;11.30;35.90
3868;DHT22;1949;48.152;11.528;2024-01-30T00:50:44;11.30;36.00
3868;DHT22;1949;48.152;11.528;2024-01-30T00:53:10;11.30;36.00
3868;DHT22;1949;48.152;11.528;2024-01-30T00:55:35;11.30;36.00
3868;DHT22;1949;48.152;11.528;2024-01-30T00:58:01;11.30;36.00
3868;DHT22;1949;48.152;11.528;2024-01-30T01:00:27;11.30;36.00
3868;DHT22;1949;48.152;11.528;2024-01-30T01:02:55;11.40;36.10
3868;DHT22;1949;48.152;11.528;2024-01-30T01:05:21;11.30;36.10
3868;DHT22;1949;48.152;11.528;2024-01-30T01:07:47;11.30;36.10
3868;DHT22;1949;48.152;11.528;2024-01-30T01:10:17;11.30;36.10
3868;DHT22;1949;48.152;11.528;2024-01-30T01:12:44;11.20;36.00
3868;DHT22;1949;48.152;11.528;2024-01-30T01:15:10;11.20;36.00
3868;DHT22;1949;48.152;11.528;2024-01-30T01:17:36;11.20;36.00
3868;DHT22;1949;48.152;11.528;2024-01-30T01:20:03;11.20;36.00
3868;DHT22;1949;48.152;11.528;2024-01-30T01:22:30;11.20;36.10
3868;DHT22;1949;48.152;11.528;2024-01-30T01:24:56;11.20;36.10
3868;DHT22;1949;48.152;11.528;2024-01-30T01:27:22;11.20;36.10
3868;DHT22;1949;48.152;11.528;2024-01-30T01:29:48;11.10;36.00
3868;DHT22;1949;48.152;11.528;2024-01-30T01:32:14;11.10;36.10
3868;DHT22;1949;48.152;11.528;2024-01-30T01:34:39;11.10;36.10
3868;DHT22;1949;48.152;11.528;2024-01-30T01:37:06;11.10;36.10
3868;DHT22;1949;48.152;11.528;2024-01-30T01:39:33;11.10;36.10
3868;DHT22;1949;48.152;11.528;2024-01-30T01:41:59;11.10;36.10
3868;DHT22;1949;48.152;11.528;2024-01-30T01:44:26;11.10;36.20
3868;DHT22;1949;48.152;11.528;2024-01-30T01:46:52;11.10;36.20
3868;DHT22;1949;48.152;11.528;2024-01-30T01:49:19;11.00;36.10
3868;DHT22;1949;48.152;11.528;2024-01-30T01:51:47;11.00;36.20
3868;DHT22;1949;48.152;11.528;2024-01-30T01:54:14;11.00;36.20
3868;DHT22;1949;48.152;11.528;2024-01-30T01:56:42;11.00;36.20
3868;DHT22;1949;48.152;11.528;2024-01-30T01:59:08;11.00;36.00
3868;DHT22;1949;48.152;11.528;2024-01-30T02:01:39;10.80;36.00
3868;DHT22;1949;48.152;11.528;2024-01-30T02:04:08;10.80;36.20
3868;DHT22;1949;48.152;11.528;2024-01-30T02:06:34;10.80;36.20
3868;DHT22;1949;48.152;11.528;2024-01-30T02:09:00;10.70;36.20
3868;DHT22;1949;48.152;11.528;2024-01-30T02:11:27;10.70;36.30
3868;DHT22;1949;48.152;11.528;2024-01-30T02:13:53;10.70;36.30
3868;DHT22;1949;48.152;11.528;2024-01-30T02:16:19;10.70;36.30
3868;DHT22;1949;48.152;11.528;2024-01-30T02:18:45;10.70;36.30
3868;DHT22;1949;48.152;11.528;2024-01-30T02:21:15;10.70;36.30
3868;DHT22;1949;48.152;11.528;2024-01-30T02:23:41;10.70;36.30
3868;DHT22;1949;48.152;11.528;2024-01-30T02:26:08;10.80;36.40
3868;DHT22;1949;48.152;11.528;2024-01-30T02:28:34;10.70;36.30
3868;DHT22;1949;48.152;11.528;2024-01-30T02:30:59;10.80;36.40
3868;DHT22;1949;48.152;11.528;2024-01-30T02:33:25;10.80;36.40
3868;DHT22;1949;48.152;11.528;2024-01-30T02:35:51;10.80;36.40
3868;DHT22;1949;48.152;11.528;2024-01-30T02:38:16;10.70;36.30
3868;DHT22;1949;48.152;11.528;2024-01-30T02:40:42;10.70;36.30
3868;DHT22;1949;48.152;11.528;2024-01-30T02:43:08;10.70;36.30
3868;DHT22;1949;48.152;11.528;2024-01-30T02:45:34;10.70;36.30
3868;DHT22;1949;48.152;11.528;2024-01-30T02:48:00;10.70;36.40
3868;DHT22;1949;48.152;11.528;2024-01-30T02:50:25;10.70;36.40
3868;DHT22;1949;48.152;11.528;2024-01-30T02:52:51;10.70;36.40
3868;DHT22;1949;48.152;11.528;2024-01-30T02:55:17;10.70;36.40
3868;DHT22;1949;48.152;11.528;2024-01-30T02:57:43;10.70;36.40
3868;DHT22;1949;48.152;11.528;2024-01-30T03:00:09;10.70;36.40
3868;DHT22;1949;48.152;11.528;2024-01-30T03:02:36;10.70;36.40
3868;DHT22;1949;48.152;11.528;2024-01-30T03:05:02;10.70;36.40
3868;DHT22;1949;48.152;11.528;2024-01-30T03:07:31;10.70;36.40
3868;DHT22;1949;48.152;11.528;2024-01-30T03:09:57;10.70;36.50
3868;DHT22;1949;48.152;11.528;2024-01-30T03:12:23;10.70;36.50
3868;DHT22;1949;48.152;11.528;2024-01-30T03:14:50;10.70;36.30
3868;DHT22;1949;48.152;11.528;2024-01-30T03:17:15;10.60;36.40
3868;DHT22;1949;48.152;11.528;2024-01-30T03:19:41;10.60;36.50
3868;DHT22;1949;48.152;11.528;2024-01-30T03:22:07;10.60;36.50
3868;DHT22;1949;48.152;11.528;2024-01-30T03:24:33;10.60;36.50
3868;DHT22;1949;48.152;11.528;2024-01-30T03:26:59;10.60;36.50
3868;DHT22;1949;48.152;11.528;2024-01-30T03:29:26;10.60;36.50
3868;DHT22;1949;48.152;11.528;2024-01-30T03:31:51;10.60;36.60
3868;DHT22;1949;48.152;11.528;2024-01-30T03:34:17;10.60;36.60
3868;DHT22;1949;48.152;11.528;2024-01-30T03:36:43;10.60;36.60
3868;DHT22;1949;48.152;11.528;2024-01-30T03:39:11;10.60;36.60
3868;DHT22;1949;48.152;11.528;2024-01-30T03:41:37;10.60;36.60
3868;DHT22;1949;48.152;11.528;2024-01-30T03:44:03;10.60;36.60
3868;DHT22;1949;48.152;11.528;2024-01-30T03:46:29;10.60;36.60
3868;DHT22;1949;48.152;11.528;2024-01-30T03:48:54;10.60;36.50
3868;DHT22;1949;48.152;11.528;2024-01-30T03:51:20;10.60;36.60
3868;DHT22;1949;48.152;11.528;2024-01-30T03:53:46;10.60;36.70
3868;DHT22;1949;48.152;11.528;2024-01-30T03:56:12;10.60;36.50
3868;DHT22;1949;48.152;11.528;2024-01-30T03:58:41;10.60;36.60
3868;DHT22;1949;48.152;11.528;2024-01-30T04:01:07;10.50;36.50
3868;DHT22;1949;48.152;11.528;2024-01-30T04:03:34;10.50;36.60
3868;DHT22;1949;48.152;11.528;2024-01-30T04:06:00;10.50;36.60
3868;DHT22;1949;48.152;11.528;2024-01-30T04:08:25;10.50;36.60
3868;DHT22;1949;48.152;11.528;2024-01-30T04:10:52;10.50;36.60
3868;DHT22;1949;48.152;11.528;2024-01-30T04:13:18;10.50;36.60
3868;DHT22;1949;48.152;11.528;2024-01-30T04:15:43;10.50;36.60
3868;DHT22;1949;48.152;11.528;2024-01-30T04:18:10;10.50;36.60
3868;DHT22;1949;48.152;11.528;2024-01-30T04:20:36;10.50;36.70
3868;DHT22;1949;48.152;11.528;2024-01-30T04:23:01;10.50;36.60
3868;DHT22;1949;48.152;11.528;2024-01-30T04:25:27;10.50;36.70
3868;DHT22;1949;48.152;11.528;2024-01-30T04:27:53;10.40;36.50
3868;DHT22;1949;48.152;11.528;2024-01-30T04:30:18;10.40;36.50
3868;DHT22;1949;48.152;11.528;2024-01-30T04:32:45;10.40;36.50
3868;DHT22;1949;48.152;11.528;2024-01-30T04:35:11;10.40;36.60
3868;DHT22;1949;48.152;11.528;2024-01-30T04:37:37;10.40;36.60
3868;DHT22;1949;48.152;11.528;2024-01-30T04:40:03;10.40;36.60
3868;DHT22;1949;48.152;11.528;2024-01-30T04:42:28;10.40;36.60
3868;DHT22;1949;48.152;11.528;2024-01-30T04:44:54;10.40;37.20
3868;DHT22;1949;48.152;11.528;2024-01-30T04:47:20;10.40;36.70
3868;DHT22;1949;48.152;11.528;2024-01-30T04:49:46;10.40;36.70
3868;DHT22;1949;48.152;11.528;2024-01-30T04:52:12;10.40;36.60
3868;DHT22;1949;48.152;11.528;2024-01-30T04:54:38;10.40;36.70
3868;DHT22;1949;48.152;11.528;2024-01-30T04:57:04;10.30;36.60
3868;DHT22;1949;48.152;11.528;2024-01-30T04:59:34;10.30;36.60
3868;DHT22;1949;48.152;11.528;2024-01-30T05:01:59;10.30;36.60
3868;DHT22;1949;48.152;11.528;2024-01-30T05:04:25;10.30;36.60
3868;DHT22;1949;48.152;11.528;2024-01-30T05:06:51;10.30;36.60
3868;DHT22;1949;48.152;11.528;2024-01-30T05:09:17;10.30;36.60
3868;DHT22;1949;48.152;11.528;2024-01-30T05:11:42;10.30;36.70
3868;DHT22;1949;48.152;11.528;2024-01-30T05:14:08;10.30;36.60
3868;DHT22;1949;48.152;11.528;2024-01-30T05:16:35;10.30;36.60
3868;DHT22;1949;48.152;11.528;2024-01-30T05:19:00;10.30;36.60
3868;DHT22;1949;48.152;11.528;2024-01-30T05:21:26;10.30;36.70
3868;DHT22;1949;48.152;11.528;2024-01-30T05:23:52;10.20;37.20
3868;DHT22;1949;48.152;11.528;2024-01-30T05:26:18;10.30;36.70
3868;DHT22;1949;48.152;11.528;2024-01-30T05:28:44;10.30;36.70
3868;DHT22;1949;48.152;11.528;2024-01-30T05:31:13;10.20;36.60
3868;DHT22;1949;48.152;11.528;2024-01-30T05:33:40;10.20;36.60
3868;DHT22;1949;48.152;11.528;2024-01-30T05:36:06;10.20;36.60
3868;DHT22;1949;48.152;11.528;2024-01-30T05:38:32;10.20;36.70
3868;DHT22;1949;48.152;11.528;2024-01-30T05:40:58;10.20;36.70
3868;DHT22;1949;48.152;11.528;2024-01-30T05:43:24;10.20;36.70
3868;DHT22;1949;48.152;11.528;2024-01-30T05:45:50;10.20;36.70
3868;DHT22;1949;48.152;11.528;2024-01-30T05:48:16;10.20;36.80
3868;DHT22;1949;48.152;11.528;2024-01-30T05:50:42;10.20;36.80
3868;DHT22;1949;48.152;11.528;2024-01-30T05:53:08;10.20;36.80
3868;DHT22;1949;48.152;11.528;2024-01-30T05:55:33;10.20;36.80
3868;DHT22;1949;48.152;11.528;2024-01-30T05:57:59;10.20;36.80
3868;DHT22;1949;48.152;11.528;2024-01-30T06:00:25;10.20;37.00
3868;DHT22;1949;48.152;11.528;2024-01-30T06:02:51;10.20;36.80
3868;DHT22;1949;48.152;11.528;2024-01-30T06:05:16;10.20;36.80
3868;DHT22;1949;48.152;11.528;2024-01-30T06:07:42;10.20;36.80
3868;DHT22;1949;48.152;11.528;2024-01-30T06:10:08;10.20;36.80
3868;DHT22;1949;48.152;11.528;2024-01-30T06:12:35;10.20;36.90
3868;DHT22;1949;48.152;11.528;2024-01-30T06:15:01;10.10;36.80
3868;DHT22;1949;48.152;11.528;2024-01-30T06:17:28;10.20;37.00
3868;DHT22;1949;48.152;11.528;2024-01-30T06:19:54;10.10;36.80
3868;DHT22;1949;48.152;11.528;2024-01-30T06:22:20;10.10;36.90
3868;DHT22;1949;48.152;11.528;2024-01-30T06:24:46;10.10;36.90
3868;DHT22;1949;48.152;11.528;2024-01-30T06:27:14;10.10;36.80
3868;DHT22;1949;48.152;11.528;2024-01-30T06:29:42;10.10;36.80
3868;DHT22;1949;48.152;11.528;2024-01-30T06:32:09;10.10;36.80
3868;DHT22;1949;48.152;11.528;2024-01-30T06:34:35;10.00;36.60
3868;DHT22;1949;48.152;11.528;2024-01-30T06:37:01;10.00;36.50
3868;DHT22;1949;48.152;11.528;2024-01-30T06:39:27;10.00;36.60
3868;DHT22;1949;48.152;11.528;2024-01-30T06:41:53;9.90;37.50
3868;DHT22;1949;48.152;11.528;2024-01-30T06:44:19;9.80;37.50
3868;DHT22;1949;48.152;11.528;2024-01-30T06:46:44;9.90;37.60
3868;DHT22;1949;48.152;11.528;2024-01-30T06:49:10;9.90;37.70
3868;DHT22;1949;48.152;11.528;2024-01-30T06:51:36;9.90;37.70
3868;DHT22;1949;48.152;11.528;2024-01-30T06:54:02;10.00;36.80
3868;DHT22;1949;48.152;11.528;2024-01-30T06:56:28;10.00;36.70
3868;DHT22;1949;48.152;11.528;2024-01-30T06:58:54;10.00;36.70
3868;DHT22;1949;48.152;11.528;2024-01-30T07:01:20;10.00;36.70
3868;DHT22;1949;48.152;11.528;2024-01-30T07:03:46;10.00;36.70
3868;DHT22;1949;48.152;11.528;2024-01-30T07:06:12;10.10;36.80
3868;DHT22;1949;48.152;11.528;2024-01-30T07:08:38;10.00;36.70
3868;DHT22;1949;48.152;11.528;2024-01-30T07:11:05;10.10;36.80
3868;DHT22;1949;48.152;11.528;2024-01-30T07:13:32;10.00;36.70
3868;DHT22;1949;48.152;11.528;2024-01-30T07:15:58;10.00;36.60
3868;DHT22;1949;48.152;11.528;2024-01-30T07:18:24;10.00;36.60
3868;DHT22;1949;48.152;11.528;2024-01-30T07:20:49;9.90;37.70
3868;DHT22;1949;48.152;11.528;2024-01-30T07:23:16;10.00;36.80
3868;DHT22;1949;48.152;11.528;2024-01-30T07:25:46;10.00;36.70
3868;DHT22;1949;48.152;11.528;2024-01-30T07:28:15;10.00;36.60
3868;DHT22;1949;48.152;11.528;2024-01-30T07:30:44;10.00;36.60
3868;DHT22;1949;48.152;11.528;2024-01-30T07:33:11;9.90;37.50
3868;DHT22;1949;48.152;11.528;2024-01-30T07:35:36;10.00;36.70
3868;DHT22;1949;48.152;11.528;2024-01-30T07:38:02;10.00;36.70
3868;DHT22;1949;48.152;11.528;2024-01-30T07:40:28;10.10;36.70
3868;DHT22;1949;48.152;11.528;2024-01-30T07:42:54;10.10;36.70
3868;DHT22;1949;48.152;11.528;2024-01-30T07:45:20;10.10;36.70
3868;DHT22;1949;48.152;11.528;2024-01-30T07:47:51;10.20;36.80
3868;DHT22;1949;48.152;11.528;2024-01-30T07:50:17;10.20;36.70
3868;DHT22;1949;48.152;11.528;2024-01-30T07:52:43;10.20;36.70
3868;DHT22;1949;48.152;11.528;2024-01-30T07:55:09;10.20;36.60
3868;DHT22;1949;48.152;11.528;2024-01-30T07:57:35;10.20;36.60
3868;DHT22;1949;48.152;11.528;2024-01-30T08:00:01;10.20;36.70
3868;DHT22;1949;48.152;11.528;2024-01-30T08:02:28;10.20;36.70
3868;DHT22;1949;48.152;11.528;2024-01-30T08:04:54;10.20;36.70
3868;DHT22;1949;48.152;11.528;2024-01-30T08:07:20;10.30;36.80
3868;DHT22;1949;48.152;11.528;2024-01-30T08:09:49;10.40;36.70
3868;DHT22;1949;48.152;11.528;2024-01-30T08:12:15;10.40;36.60
3868;DHT22;1949;48.152;11.528;2024-01-30T08:14:45;10.40;36.50
3868;DHT22;1949;48.152;11.528;2024-01-30T08:17:22;10.40;36.40
3868;DHT22;1949;48.152;11.528;2024-01-30T08:19:48;10.40;36.30
3868;DHT22;1949;48.152;11.528;2024-01-30T08:22:25;10.40;36.30
3868;DHT22;1949;48.152;11.528;2024-01-30T08:24:51;10.40;36.40
3868;DHT22;1949;48.152;11.528;2024-01-30T08:27:17;10.40;36.50
3868;DHT22;1949;48.152;11.528;2024-01-30T08:29:51;10.40;36.40
3868;DHT22;1949;48.152;11.528;2024-01-30T08:32:20;10.50;36.40
3868;DHT22;1949;48.152;11.528;2024-01-30T08:34:47;10.50;36.40
3868;DHT22;1949;48.152;11.528;2024-01-30T08:37:19;10.50;36.30
3868;DHT22;1949;48.152;11.528;2024-01-30T08:39:54;10.50;36.40
3868;DHT22;1949;48.152;11.528;2024-01-30T08:42:31;10.60;36.30
3868;DHT22;1949;48.152;11.528;2024-01-30T08:45:04;10.60;36.50
3868;DHT22;1949;48.152;11.528;2024-01-30T08:47:34;10.70;36.50
3868;DHT22;1949;48.152;11.528;2024-01-30T08:50:08;10.70;36.20
3868;DHT22;1949;48.152;11.528;2024-01-30T08:52:35;10.80;36.30
3868;DHT22;1949;48.152;11.528;2024-01-30T08:55:02;10.80;36.20
3868;DHT22;1949;48.152;11.528;2024-01-30T08:57:28;10.80;36.10
3868;DHT22;1949;48.152;11.528;2024-01-30T08:59:54;10.80;36.20
3868;DHT22;1949;48.152;11.528;2024-01-30T09:02:21;10.90;36.20
3868;DHT22;1949;48.152;11.528;2024-01-30T09:04:48;11.00;36.40
3868;DHT22;1949;48.152;11.528;2024-01-30T09:07:23;11.10;36.40
3868;DHT22;1949;48.152;11.528;2024-01-30T09:09:49;11.20;36.40
3868;DHT22;1949;48.152;11.528;2024-01-30T09:12:17;11.30;36.30
3868;DHT22;1949;48.152;11.528;2024-01-30T09:14:45;11.30;36.20
3868;DHT22;1949;48.152;11.528;2024-01-30T09:17:11;11.50;36.30
3868;DHT22;1949;48.152;11.528;2024-01-30T09:19:40;11.50;36.20
3868;DHT22;1949;48.152;11.528;2024-01-30T09:22:08;11.60;36.20
3868;DHT22;1949;48.152;11.528;2024-01-30T09:24:34;11.60;36.10
3868;DHT22;1949;48.152;11.528;2024-01-30T09:27:03;11.70;36.10
3868;DHT22;1949;48.152;11.528;2024-01-30T09:29:30;11.80;36.10
3868;DHT22;1949;48.152;11.528;2024-01-30T09:31:57;11.80;36.00
3868;DHT22;1949;48.152;11.528;2024-01-30T09:34:23;11.90;36.00
3868;DHT22;1949;48.152;11.528;2024-01-30T09:36:50;11.90;36.00
3868;DHT22;1949;48.152;11.528;2024-01-30T09:39:16;12.00;36.00
3868;DHT22;1949;48.152;11.528;2024-01-30T09:42:01;12.00;35.90
3868;DHT22;1949;48.152;11.528;2024-01-30T09:44:29;12.10;36.00
3868;DHT22;1949;48.152;11.528;2024-01-30T09:46:57;12.10;35.90
3868;DHT22;1949;48.152;11.528;2024-01-30T09:49:32;12.20;35.90
3868;DHT22;1949;48.152;11.528;2024-01-30T09:52:02;12.20;35.80
3868;DHT22;1949;48.152;11.528;2024-01-30T09:54:35;12.30;35.90
3868;DHT22;1949;48.152;11.528;2024-01-30T09:57:01;12.30;35.80
3868;DHT22;1949;48.152;11.528;2024-01-30T09:59:28;12.40;35.90
3868;DHT22;1949;48.152;11.528;2024-01-30T10:01:56;12.40;35.70
3868;DHT22;1949;48.152;11.528;2024-01-30T10:04:22;12.50;35.70
3868;DHT22;1949;48.152;11.528;2024-01-30T10:06:51;12.50;35.70
3868;DHT22;1949;48.152;11.528;2024-01-30T10:09:17;12.50;35.70
3868;DHT22;1949;48.152;11.528;2024-01-30T10:11:44;12.60;35.70
3868;DHT22;1949;48.152;11.528;2024-01-30T10:14:10;12.60;35.60
3868;DHT22;1949;48.152;11.528;2024-01-30T10:16:38;12.70;35.70
3868;DHT22;1949;48.152;11.528;2024-01-30T10:19:05;12.70;35.70
3868;DHT22;1949;48.152;11.528;2024-01-30T10:21:34;12.70;35.60
3868;DHT22;1949;48.152;11.528;2024-01-30T10:24:00;12.80;35.60
3868;DHT22;1949;48.152;11.528;2024-01-30T10:26:27;12.80;35.50
3868;DHT22;1949;48.152;11.528;2024-01-30T10:28:55;12.80;35.50
3868;DHT22;1949;48.152;11.528;2024-01-30T10:31:21;12.80;35.40
3868;DHT22;1949;48.152;11.528;2024-01-30T10:33:50;12.90;35.50
3868;DHT22;1949;48.152;11.528;2024-01-30T10:36:19;12.90;35.40
3868;DHT22;1949;48.152;11.528;2024-01-30T10:38:51;12.90;35.40
3868;DHT22;1949;48.152;11.528;2024-01-30T10:41:27;13.00;35.30
3868;DHT22;1949;48.152;11.528;2024-01-30T10:44:02;13.00;35.20
3868;DHT22;1949;48.152;11.528;2024-01-30T10:46:38;13.10;35.30
3868;DHT22;1949;48.152;11.528;2024-01-30T10:49:13;13.10;35.30
3868;DHT22;1949;48.152;11.528;2024-01-30T10:51:53;13.10;35.20
3868;DHT22;1949;48.152;11.528;2024-01-30T10:54:21;13.10;35.20
3868;DHT22;1949;48.152;11.528;2024-01-30T10:56:48;13.20;35.10
3868;DHT22;1949;48.152;11.528;2024-01-30T10:59:15;13.20;35.20
3868;DHT22;1949;48.152;11.528;2024-01-30T11:01:48;13.20;35.10
3868;DHT22;1949;48.152;11.528;2024-01-30T11:04:21;13.30;35.20
3868;DHT22;1949;48.152;11.528;2024-01-30T11:06:54;13.30;35.00
3868;DHT22;1949;48.152;11.528;2024-01-30T11:12:25;13.40;35.10
3868;DHT22;1949;48.152;11.528;2024-01-30T11:15:14;13.40;35.00
3868;DHT22;1949;48.152;11.528;2024-01-30T11:20:29;13.50;35.00
3868;DHT22;1949;48.152;11.528;2024-01-30T11:22:59;13.60;35.60
3868;DHT22;1949;48.152;11.528;2024-01-30T11:25:28;13.60;34.90
3868;DHT22;1949;48.152;11.528;2024-01-30T11:27:57;13.70;34.90
3868;DHT22;1949;48.152;11.528;2024-01-30T11:30:30;13.80;34.90
3868;DHT22;1949;48.152;11.528;2024-01-30T11:33:06;13.90;34.80
3868;DHT22;1949;48.152;11.528;2024-01-30T11:35:41;14.00;34.80
3868;DHT22;1949;48.152;11.528;2024-01-30T11:38:14;14.00;34.60
3868;DHT22;1949;48.152;11.528;2024-01-30T11:40:41;14.10;34.60
3868;DHT22;1949;48.152;11.528;2024-01-30T11:43:08;14.10;34.50
3868;DHT22;1949;48.152;11.528;2024-01-30T11:45:35;14.20;34.60
3868;DHT22;1949;48.152;11.528;2024-01-30T11:48:02;14.30;34.50
3868;DHT22;1949;48.152;11.528;2024-01-30T11:50:38;14.40;34.40
3868;DHT22;1949;48.152;11.528;2024-01-30T11:53:06;14.50;34.30
3868;DHT22;1949;48.152;11.528;2024-01-30T11:55:38;14.60;34.30
3868;DHT22;1949;48.152;11.528;2024-01-30T11:58:04;14.70;34.30
3868;DHT22;1949;48.152;11.528;2024-01-30T12:00:38;14.80;34.30
3868;DHT22;1949;48.152;11.528;2024-01-30T12:03:04;14.80;34.20
3868;DHT22;1949;48.152;11.528;2024-01-30T12:05:31;14.90;34.30
3868;DHT22;1949;48.152;11.528;2024-01-30T12:07:57;15.00;34.10
3868;DHT22;1949;48.152;11.528;2024-01-30T12:10:26;15.20;34.20
3868;DHT22;1949;48.152;11.528;2024-01-30T12:12:53;15.30;34.20
3868;DHT22;1949;48.152;11.528;2024-01-30T12:15:33;15.50;34.10
3868;DHT22;1949;48.152;11.528;2024-01-30T12:18:06;15.70;34.30
3868;DHT22;1949;48.152;11.528;2024-01-30T12:20:32;15.90;34.00
3868;DHT22;1949;48.152;11.528;2024-01-30T12:22:57;16.10;33.90
3868;DHT22;1949;48.152;11.528;2024-01-30T12:25:31;16.20;33.60
3868;DHT22;1949;48.152;11.528;2024-01-30T12:27:58;16.30;33.40
3868;DHT22;1949;48.152;11.528;2024-01-30T12:30:27;16.50;33.40
3868;DHT22;1949;48.152;11.528;2024-01-30T12:32:55;16.50;33.10
3868;DHT22;1949;48.152;11.528;2024-01-30T12:35:21;16.50;33.00
3868;DHT22;1949;48.152;11.528;2024-01-30T12:37:49;16.50;32.90
3868;DHT22;1949;48.152;11.528;2024-01-30T12:40:17;16.50;32.90
3868;DHT22;1949;48.152;11.528;2024-01-30T12:42:46;16.50;32.80
3868;DHT22;1949;48.152;11.528;2024-01-30T12:45:14;16.50;32.70
3868;DHT22;1949;48.152;11.528;2024-01-30T12:47:49;16.50;32.80
3868;DHT22;1949;48.152;11.528;2024-01-30T12:50:16;16.60;32.90
3868;DHT22;1949;48.152;11.528;2024-01-30T12:52:43;16.70;32.90
3868;DHT22;1949;48.152;11.528;2024-01-30T12:55:11;16.80;32.70
3868;DHT22;1949;48.152;11.528;2024-01-30T12:57:37;17.00;32.70
3868;DHT22;1949;48.152;11.528;2024-01-30T13:00:06;17.10;32.60
3868;DHT22;1949;48.152;11.528;2024-01-30T13:02:36;17.20;32.40
3868;DHT22;1949;48.152;11.528;2024-01-30T13:05:16;17.40;32.90
3868;DHT22;1949;48.152;11.528;2024-01-30T13:07:45;17.50;32.10
3868;DHT22;1949;48.152;11.528;2024-01-30T13:10:11;17.50;31.80
3868;DHT22;1949;48.152;11.528;2024-01-30T13:12:37;17.60;31.90
3868;DHT22;1949;48.152;11.528;2024-01-30T13:15:05;17.80;32.00
3868;DHT22;1949;48.152;11.528;2024-01-30T13:17:31;18.10;32.10
3868;DHT22;1949;48.152;11.528;2024-01-30T13:19:58;18.50;32.00
3868;DHT22;1949;48.152;11.528;2024-01-30T13:22:24;18.80;31.90
3868;DHT22;1949;48.152;11.528;2024-01-30T13:24:58;19.10;31.70
3868;DHT22;1949;48.152;11.528;2024-01-30T13:27:24;19.40;31.30
3868;DHT22;1949;48.152;11.528;2024-01-30T13:29:55;19.50;31.10
3868;DHT22;1949;48.152;11.528;2024-01-30T13:32:25;19.60;30.60
3868;DHT22;1949;48.152;11.528;2024-01-30T13:34:51;19.60;30.40
3868;DHT22;1949;48.152;11.528;2024-01-30T13:37:17;19.60;30.40
3868;DHT22;1949;48.152;11.528;2024-01-30T13:39:50;19.50;30.10
3868;DHT22;1949;48.152;11.528;2024-01-30T13:42:17;19.50;30.10
3868;DHT22;1949;48.152;11.528;2024-01-30T13:44:48;19.30;30.00
3868;DHT22;1949;48.152;11.528;2024-01-30T13:47:14;19.30;30.00
3868;DHT22;1949;48.152;11.528;2024-01-30T13:49:45;19.20;30.00
3868;DHT22;1949;48.152;11.528;2024-01-30T13:52:12;19.10;30.00
3868;DHT22;1949;48.152;11.528;2024-01-30T13:54:48;19.10;30.00
3868;DHT22;1949;48.152;11.528;2024-01-30T13:57:14;19.00;30.00
3868;DHT22;1949;48.152;11.528;2024-01-30T13:59:47;19.00;30.00
3868;DHT22;1949;48.152;11.528;2024-01-30T14:02:19;18.90;30.00
3868;DHT22;1949;48.152;11.528;2024-01-30T14:04:46;18.90;30.00
3868;DHT22;1949;48.152;11.528;2024-01-30T14:07:13;18.80;30.00
3868;DHT22;1949;48.152;11.528;2024-01-30T14:09:44;18.80;30.00
3868;DHT22;1949;48.152;11.528;2024-01-30T14:12:11;18.70;30.00
3868;DHT22;1949;48.152;11.528;2024-01-30T14:14:36;18.60;30.00
3868;DHT22;1949;48.152;11.528;2024-01-30T14:17:03;18.50;30.00
3868;DHT22;1949;48.152;11.528;2024-01-30T14:19:35;18.40;30.00
3868;DHT22;1949;48.152;11.528;2024-01-30T14:22:13;18.40;30.10
3868;DHT22;1949;48.152;11.528;2024-01-30T14:24:39;18.30;30.70
3868;DHT22;1949;48.152;11.528;2024-01-30T14:27:20;18.20;30.20
3868;DHT22;1949;48.152;11.528;2024-01-30T14:29:52;18.10;30.30
3868;DHT22;1949;48.152;11.528;2024-01-30T14:32:21;18.00;30.30
3868;DHT22;1949;48.152;11.528;2024-01-30T14:34:49;18.00;30.30
3868;DHT22;1949;48.152;11.528;2024-01-30T14:37:15;17.90;30.50
3868;DHT22;1949;48.152;11.528;2024-01-30T14:39:42;17.80;30.40
3868;DHT22;1949;48.152;11.528;2024-01-30T14:42:08;17.80;30.50
3868;DHT22;1949;48.152;11.528;2024-01-30T14:44:35;17.70;30.40
3868;DHT22;1949;48.152;11.528;2024-01-30T14:47:15;17.70;30.60
3868;DHT22;1949;48.152;11.528;2024-01-30T14:49:41;17.60;30.60
3868;DHT22;1949;48.152;11.528;2024-01-30T14:52:10;17.50;30.60
3868;DHT22;1949;48.152;11.528;2024-01-30T14:54:36;17.50;30.70
3868;DHT22;1949;48.152;11.528;2024-01-30T14:57:17;17.40;30.70
3868;DHT22;1949;48.152;11.528;2024-01-30T14:59:50;17.30;30.70
3868;DHT22;1949;48.152;11.528;2024-01-30T15:02:15;17.30;30.80
3868;DHT22;1949;48.152;11.528;2024-01-30T15:04:41;17.20;30.90
3868;DHT22;1949;48.152;11.528;2024-01-30T15:07:07;17.20;30.90
3868;DHT22;1949;48.152;11.528;2024-01-30T15:09:33;17.10;30.90
3868;DHT22;1949;48.152;11.528;2024-01-30T15:11:59;17.00;31.00
3868;DHT22;1949;48.152;11.528;2024-01-30T15:14:25;17.00;31.10
3868;DHT22;1949;48.152;11.528;2024-01-30T15:16:51;17.00;31.20
3868;DHT22;1949;48.152;11.528;2024-01-30T15:19:17;16.90;31.20
3868;DHT22;1949;48.152;11.528;2024-01-30T15:21:42;16.90;31.30
3868;DHT22;1949;48.152;11.528;2024-01-30T15:24:08;16.80;31.30
3868;DHT22;1949;48.152;11.528;2024-01-30T15:26:35;16.70;31.30
3868;DHT22;1949;48.152;11.528;2024-01-30T15:29:01;16.70;31.40
3868;DHT22;1949;48.152;11.528;2024-01-30T15:31:28;16.70;31.40
3868;DHT22;1949;48.152;11.528;2024-01-30T15:33:54;16.70;31.50
3868;DHT22;1949;48.152;11.528;2024-01-30T15:36:20;16.60;31.50
3868;DHT22;1949;48.152;11.528;2024-01-30T15:38:45;16.60;31.50
3868;DHT22;1949;48.152;11.528;2024-01-30T15:41:11;16.50;31.60
3868;DHT22;1949;48.152;11.528;2024-01-30T15:43:37;16.50;31.70
3868;DHT22;1949;48.152;11.528;2024-01-30T15:46:03;16.50;31.70
3868;DHT22;1949;48.152;11.528;2024-01-30T15:48:29;16.50;31.80
3868;DHT22;1949;48.152;11.528;2024-01-30T15:50:55;16.40;31.70
3868;DHT22;1949;48.152;11.528;2024-01-30T15:53:21;16.40;31.80
3868;DHT22;1949;48.152;11.528;2024-01-30T15:55:47;16.40;31.90